sensor_id;sensor_type;location;lat;lon;timestamp;P1;durP1;ratioP1;P2;durP2;ratioP2
72388;SDS011;60566;48.062;9.930;2024-01-30T00:00:31;6.43;;;3.50;;
72388;SDS011;60566;48.062;9.930;2024-01-30T00:02:56;5.40;;;3.63;;
72388;SDS011;60566;48.062;9.930;2024-01-30T00:05:22;5.93;;;3.67;;
72388;SDS011;60566;48.062;9.930;2024-01-30T00:07:47;5.78;;;3.33;;
72388;SDS011;60566;48.062;9.930;2024-01-30T00:10:12;6.35;;;4.43;;
72388;SDS011;60566;48.062;9.930;2024-01-30T00:12:38;8.75;;;3.80;;
72388;SDS011;60566;48.062;9.930;2024-01-30T00:15:05;26.75;;;9.23;;
72388;SDS011;60566;48.062;9.930;2024-01-30T00:17:31;8.57;;;4.28;;
72388;SDS011;60566;48.062;9.930;2024-01-30T00:19:56;5.78;;;3.75;;
72388;SDS011;60566;48.062;9.930;2024-01-30T00:22:21;4.97;;;2.97;;
72388;SDS011;60566;48.062;9.930;2024-01-30T00:24:47;4.70;;;2.70;;
72388;SDS011;60566;48.062;9.930;2024-01-30T00:27:12;4.80;;;3.40;;
72388;SDS011;60566;48.062;9.930;2024-01-30T00:29:38;6.50;;;3.30;;
72388;SDS011;60566;48.062;9.930;2024-01-30T00:32:05;6.25;;;3.17;;
72388;SDS011;60566;48.062;9.930;2024-01-30T00:34:31;5.25;;;3.15;;
72388;SDS011;60566;48.062;9.930;2024-01-30T00:36:56;7.35;;;3.10;;
72388;SDS011;60566;48.062;9.930;2024-01-30T00:39:22;6.15;;;3.42;;
72388;SDS011;60566;48.062;9.930;2024-01-30T00:41:47;7.22;;;3.83;;
72388;SDS011;60566;48.062;9.930;2024-01-30T00:44:12;5.97;;;3.55;;
72388;SDS011;60566;48.062;9.930;2024-01-30T00:46:38;6.53;;;3.85;;
72388;SDS011;60566;48.062;9.930;2024-01-30T00:49:04;6.43;;;3.90;;
72388;SDS011;60566;48.062;9.930;2024-01-30T00:51:30;6.25;;;3.67;;
72388;SDS011;60566;48.062;9.930;2024-01-30T00:53:55;7.78;;;3.63;;
72388;SDS011;60566;48.062;9.930;2024-01-30T00:56:21;7.78;;;4.25;;
72388;SDS011;60566;48.062;9.930;2024-01-30T00:58:46;6.07;;;3.75;;
72388;SDS011;60566;48.062;9.930;2024-01-30T01:01:11;7.40;;;4.32;;
72388;SDS011;60566;48.062;9.930;2024-01-30T01:03:37;6.15;;;3.72;;
72388;SDS011;60566;48.062;9.930;2024-01-30T01:06:04;10.00;;;4.70;;
72388;SDS011;60566;48.062;9.930;2024-01-30T01:08:29;6.68;;;3.63;;
72388;SDS011;60566;48.062;9.930;2024-01-30T01:10:55;6.50;;;3.90;;
72388;SDS011;60566;48.062;9.930;2024-01-30T01:13:20;7.53;;;4.35;;
72388;SDS011;60566;48.062;9.930;2024-01-30T01:15:46;8.48;;;4.22;;
72388;SDS011;60566;48.062;9.930;2024-01-30T01:18:11;8.77;;;4.18;;
72388;SDS011;60566;48.062;9.930;2024-01-30T01:20:37;7.22;;;5.03;;
72388;SDS011;60566;48.062;9.930;2024-01-30T01:23:03;6.55;;;4.65;;
72388;SDS011;60566;48.062;9.930;2024-01-30T01:25:29;8.15;;;4.43;;
72388;SDS011;60566;48.062;9.930;2024-01-30T01:27:54;6.03;;;3.92;;
72388;SDS011;60566;48.062;9.930;2024-01-30T01:30:19;8.95;;;4.72;;
72388;SDS011;60566;48.062;9.930;2024-01-30T01:32:45;9.55;;;4.93;;
72388;SDS011;60566;48.062;9.930;2024-01-30T01:35:10;7.75;;;4.35;;
72388;SDS011;60566;48.062;9.930;2024-01-30T01:37:36;7.40;;;4.55;;
72388;SDS011;60566;48.062;9.930;2024-01-30T01:40:03;7.55;;;5.18;;
72388;SDS011;60566;48.062;9.930;2024-01-30T01:42:29;7.18;;;4.55;;
72388;SDS011;60566;48.062;9.930;2024-01-30T01:44:54;8.50;;;4.80;;
72388;SDS011;60566;48.062;9.930;2024-01-30T01:47:20;11.15;;;4.72;;
72388;SDS011;60566;48.062;9.930;2024-01-30T01:49:45;10.40;;;5.18;;
72388;SDS011;60566;48.062;9.930;2024-01-30T01:52:11;9.73;;;5.38;;
72388;SDS011;60566;48.062;9.930;2024-01-30T01:54:36;9.80;;;4.93;;
72388;SDS011;60566;48.062;9.930;2024-01-30T01:57:03;10.02;;;5.00;;
72388;SDS011;60566;48.062;9.930;2024-01-30T01:59:29;8.02;;;5.13;;
72388;SDS011;60566;48.062;9.930;2024-01-30T02:01:54;9.32;;;4.45;;
72388;SDS011;60566;48.062;9.930;2024-01-30T02:04:20;10.90;;;4.85;;
72388;SDS011;60566;48.062;9.930;2024-01-30T02:06:46;9.02;;;5.65;;
72388;SDS011;60566;48.062;9.930;2024-01-30T02:09:11;7.90;;;3.92;;
72388;SDS011;60566;48.062;9.930;2024-01-30T02:11:36;7.53;;;4.00;;
72388;SDS011;60566;48.062;9.930;2024-01-30T02:14:04;8.38;;;4.97;;
72388;SDS011;60566;48.062;9.930;2024-01-30T02:16:29;8.25;;;4.10;;
72388;SDS011;60566;48.062;9.930;2024-01-30T02:18:55;8.35;;;5.05;;
72388;SDS011;60566;48.062;9.930;2024-01-30T02:21:22;9.60;;;4.85;;
72388;SDS011;60566;48.062;9.930;2024-01-30T02:23:47;8.02;;;3.88;;
72388;SDS011;60566;48.062;9.930;2024-01-30T02:26:13;7.10;;;4.15;;
72388;SDS011;60566;48.062;9.930;2024-01-30T02:28:39;8.45;;;4.05;;
72388;SDS011;60566;48.062;9.930;2024-01-30T02:31:04;7.70;;;4.47;;
72388;SDS011;60566;48.062;9.930;2024-01-30T02:33:30;9.80;;;5.28;;
72388;SDS011;60566;48.062;9.930;2024-01-30T02:35:55;7.78;;;4.63;;
72388;SDS011;60566;48.062;9.930;2024-01-30T02:38:22;9.02;;;4.85;;
72388;SDS011;60566;48.062;9.930;2024-01-30T02:40:48;8.07;;;5.10;;
72388;SDS011;60566;48.062;9.930;2024-01-30T02:43:13;8.52;;;4.97;;
72388;SDS011;60566;48.062;9.930;2024-01-30T02:45:38;8.45;;;4.97;;
72388;SDS011;60566;48.062;9.930;2024-01-30T02:48:04;9.30;;;5.03;;
72388;SDS011;60566;48.062;9.930;2024-01-30T02:50:30;9.73;;;4.50;;
72388;SDS011;60566;48.062;9.930;2024-01-30T02:52:55;7.93;;;4.32;;
72388;SDS011;60566;48.062;9.930;2024-01-30T02:55:22;8.70;;;4.95;;
72388;SDS011;60566;48.062;9.930;2024-01-30T02:57:48;11.40;;;4.95;;
72388;SDS011;60566;48.062;9.930;2024-01-30T03:00:13;10.48;;;4.90;;
72388;SDS011;60566;48.062;9.930;2024-01-30T03:02:39;8.98;;;5.40;;
72388;SDS011;60566;48.062;9.930;2024-01-30T03:05:07;7.25;;;4.53;;
72388;SDS011;60566;48.062;9.930;2024-01-30T03:07:33;8.43;;;4.82;;
72388;SDS011;60566;48.062;9.930;2024-01-30T03:09:58;9.90;;;4.80;;
72388;SDS011;60566;48.062;9.930;2024-01-30T03:12:25;10.05;;;4.90;;
72388;SDS011;60566;48.062;9.930;2024-01-30T03:14:51;10.07;;;4.43;;
72388;SDS011;60566;48.062;9.930;2024-01-30T03:17:17;9.15;;;4.22;;
72388;SDS011;60566;48.062;9.930;2024-01-30T03:19:42;8.43;;;4.20;;
72388;SDS011;60566;48.062;9.930;2024-01-30T03:22:08;8.30;;;4.05;;
72388;SDS011;60566;48.062;9.930;2024-01-30T03:24:33;8.20;;;4.68;;
72388;SDS011;60566;48.062;9.930;2024-01-30T03:26:58;8.70;;;4.63;;
72388;SDS011;60566;48.062;9.930;2024-01-30T03:29:25;7.25;;;4.45;;
72388;SDS011;60566;48.062;9.930;2024-01-30T03:31:51;7.97;;;5.07;;
72388;SDS011;60566;48.062;9.930;2024-01-30T03:34:16;7.90;;;4.97;;
72388;SDS011;60566;48.062;9.930;2024-01-30T03:36:41;8.65;;;5.00;;
72388;SDS011;60566;48.062;9.930;2024-01-30T03:39:07;9.75;;;5.40;;
72388;SDS011;60566;48.062;9.930;2024-01-30T03:41:32;10.90;;;4.15;;
72388;SDS011;60566;48.062;9.930;2024-01-30T03:43:58;18.17;;;7.68;;
72388;SDS011;60566;48.062;9.930;2024-01-30T03:46:25;12.35;;;5.22;;
72388;SDS011;60566;48.062;9.930;2024-01-30T03:48:50;8.80;;;5.00;;
72388;SDS011;60566;48.062;9.930;2024-01-30T03:51:16;9.00;;;5.47;;
72388;SDS011;60566;48.062;9.930;2024-01-30T03:53:41;8.25;;;4.80;;
72388;SDS011;60566;48.062;9.930;2024-01-30T03:56:07;9.93;;;5.47;;
72388;SDS011;60566;48.062;9.930;2024-01-30T03:58:32;8.70;;;5.35;;
72388;SDS011;60566;48.062;9.930;2024-01-30T04:00:58;10.45;;;5.82;;
72388;SDS011;60566;48.062;9.930;2024-01-30T04:03:24;9.43;;;5.25;;
72388;SDS011;60566;48.062;9.930;2024-01-30T04:05:51;10.00;;;5.22;;
72388;SDS011;60566;48.062;9.930;2024-01-30T04:08:16;9.60;;;5.45;;
72388;SDS011;60566;48.062;9.930;2024-01-30T04:10:41;9.55;;;5.57;;
72388;SDS011;60566;48.062;9.930;2024-01-30T04:13:07;8.18;;;4.05;;
72388;SDS011;60566;48.062;9.930;2024-01-30T04:15:32;7.53;;;4.75;;
72388;SDS011;60566;48.062;9.930;2024-01-30T04:17:58;8.93;;;5.45;;
72388;SDS011;60566;48.062;9.930;2024-01-30T04:20:25;8.45;;;3.97;;
72388;SDS011;60566;48.062;9.930;2024-01-30T04:22:50;10.70;;;5.10;;
72388;SDS011;60566;48.062;9.930;2024-01-30T04:25:15;11.93;;;4.88;;
72388;SDS011;60566;48.062;9.930;2024-01-30T04:27:41;10.20;;;5.43;;
72388;SDS011;60566;48.062;9.930;2024-01-30T04:30:07;9.05;;;5.32;;
72388;SDS011;60566;48.062;9.930;2024-01-30T04:32:32;10.50;;;5.03;;
72388;SDS011;60566;48.062;9.930;2024-01-30T04:34:58;11.00;;;6.50;;
72388;SDS011;60566;48.062;9.930;2024-01-30T04:37:25;10.73;;;5.75;;
72388;SDS011;60566;48.062;9.930;2024-01-30T04:39:50;10.18;;;5.63;;
72388;SDS011;60566;48.062;9.930;2024-01-30T04:42:16;9.88;;;4.80;;
72388;SDS011;60566;48.062;9.930;2024-01-30T04:44:41;9.20;;;5.10;;
72388;SDS011;60566;48.062;9.930;2024-01-30T04:47:06;8.68;;;5.28;;
72388;SDS011;60566;48.062;9.930;2024-01-30T04:49:32;7.72;;;4.53;;
72388;SDS011;60566;48.062;9.930;2024-01-30T04:51:57;11.40;;;5.03;;
72388;SDS011;60566;48.062;9.930;2024-01-30T04:54:24;9.77;;;4.55;;
72388;SDS011;60566;48.062;9.930;2024-01-30T04:56:49;8.00;;;4.20;;
72388;SDS011;60566;48.062;9.930;2024-01-30T04:59:15;12.05;;;5.32;;
72388;SDS011;60566;48.062;9.930;2024-01-30T05:01:40;11.57;;;4.90;;
72388;SDS011;60566;48.062;9.930;2024-01-30T05:04:07;9.32;;;4.15;;
72388;SDS011;60566;48.062;9.930;2024-01-30T05:06:32;9.55;;;4.95;;
72388;SDS011;60566;48.062;9.930;2024-01-30T05:08:57;8.25;;;5.10;;
72388;SDS011;60566;48.062;9.930;2024-01-30T05:11:24;10.18;;;4.50;;
72388;SDS011;60566;48.062;9.930;2024-01-30T05:13:50;8.68;;;4.43;;
72388;SDS011;60566;48.062;9.930;2024-01-30T05:16:15;11.18;;;5.68;;
72388;SDS011;60566;48.062;9.930;2024-01-30T05:18:40;9.70;;;5.13;;
72388;SDS011;60566;48.062;9.930;2024-01-30T05:21:06;9.10;;;5.35;;
72388;SDS011;60566;48.062;9.930;2024-01-30T05:23:31;9.65;;;5.30;;
72388;SDS011;60566;48.062;9.930;2024-01-30T05:25:56;8.60;;;4.50;;
72388;SDS011;60566;48.062;9.930;2024-01-30T05:28:23;8.07;;;4.80;;
72388;SDS011;60566;48.062;9.930;2024-01-30T05:30:49;7.78;;;4.60;;
72388;SDS011;60566;48.062;9.930;2024-01-30T05:33:14;7.38;;;4.53;;
72388;SDS011;60566;48.062;9.930;2024-01-30T05:35:39;9.57;;;4.38;;
72388;SDS011;60566;48.062;9.930;2024-01-30T05:38:05;7.88;;;4.97;;
72388;SDS011;60566;48.062;9.930;2024-01-30T05:40:30;8.50;;;4.43;;
72388;SDS011;60566;48.062;9.930;2024-01-30T05:42:56;7.88;;;4.88;;
72388;SDS011;60566;48.062;9.930;2024-01-30T05:45:23;7.70;;;4.80;;
72388;SDS011;60566;48.062;9.930;2024-01-30T05:47:48;10.85;;;5.50;;
72388;SDS011;60566;48.062;9.930;2024-01-30T05:50:13;9.25;;;5.13;;
72388;SDS011;60566;48.062;9.930;2024-01-30T05:52:39;8.68;;;5.18;;
72388;SDS011;60566;48.062;9.930;2024-01-30T05:55:04;8.27;;;4.95;;
72388;SDS011;60566;48.062;9.930;2024-01-30T05:57:31;7.65;;;4.90;;
72388;SDS011;60566;48.062;9.930;2024-01-30T05:59:56;8.18;;;4.40;;
72388;SDS011;60566;48.062;9.930;2024-01-30T06:02:23;8.30;;;4.38;;
72388;SDS011;60566;48.062;9.930;2024-01-30T06:04:48;9.32;;;4.60;;
72388;SDS011;60566;48.062;9.930;2024-01-30T06:07:14;9.27;;;4.80;;
72388;SDS011;60566;48.062;9.930;2024-01-30T06:09:39;8.30;;;4.45;;
72388;SDS011;60566;48.062;9.930;2024-01-30T06:12:05;8.50;;;4.55;;
72388;SDS011;60566;48.062;9.930;2024-01-30T06:14:30;8.90;;;4.38;;
72388;SDS011;60566;48.062;9.930;2024-01-30T06:16:56;8.32;;;5.05;;
72388;SDS011;60566;48.062;9.930;2024-01-30T06:19:22;8.00;;;4.45;;
72388;SDS011;60566;48.062;9.930;2024-01-30T06:21:48;7.65;;;4.85;;
72388;SDS011;60566;48.062;9.930;2024-01-30T06:24:13;8.60;;;5.13;;
72388;SDS011;60566;48.062;9.930;2024-01-30T06:26:38;10.40;;;6.50;;
72388;SDS011;60566;48.062;9.930;2024-01-30T06:29:04;11.40;;;6.78;;
72388;SDS011;60566;48.062;9.930;2024-01-30T06:31:29;12.38;;;6.53;;
72388;SDS011;60566;48.062;9.930;2024-01-30T06:33:55;15.77;;;7.10;;
72388;SDS011;60566;48.062;9.930;2024-01-30T06:36:21;15.05;;;9.43;;
72388;SDS011;60566;48.062;9.930;2024-01-30T06:38:47;13.57;;;7.80;;
72388;SDS011;60566;48.062;9.930;2024-01-30T06:41:12;14.70;;;7.50;;
72388;SDS011;60566;48.062;9.930;2024-01-30T06:43:38;9.25;;;5.35;;
72388;SDS011;60566;48.062;9.930;2024-01-30T06:46:03;13.77;;;6.72;;
72388;SDS011;60566;48.062;9.930;2024-01-30T06:48:29;31.08;;;11.63;;
72388;SDS011;60566;48.062;9.930;2024-01-30T06:50:54;22.35;;;8.68;;
72388;SDS011;60566;48.062;9.930;2024-01-30T06:53:21;26.45;;;10.05;;
72388;SDS011;60566;48.062;9.930;2024-01-30T06:55:46;17.00;;;7.05;;
72388;SDS011;60566;48.062;9.930;2024-01-30T06:58:11;16.58;;;8.07;;
72388;SDS011;60566;48.062;9.930;2024-01-30T07:00:37;16.58;;;9.15;;
72388;SDS011;60566;48.062;9.930;2024-01-30T07:03:02;13.40;;;7.78;;
72388;SDS011;60566;48.062;9.930;2024-01-30T07:05:28;12.20;;;7.95;;
72388;SDS011;60566;48.062;9.930;2024-01-30T07:07:53;10.10;;;6.25;;
72388;SDS011;60566;48.062;9.930;2024-01-30T07:10:20;9.30;;;5.07;;
72388;SDS011;60566;48.062;9.930;2024-01-30T07:12:45;9.55;;;5.88;;
72388;SDS011;60566;48.062;9.930;2024-01-30T07:15:11;7.95;;;4.50;;
72388;SDS011;60566;48.062;9.930;2024-01-30T07:17:37;7.63;;;3.90;;
72388;SDS011;60566;48.062;9.930;2024-01-30T07:20:02;7.32;;;4.03;;
72388;SDS011;60566;48.062;9.930;2024-01-30T07:22:28;6.63;;;3.80;;
72388;SDS011;60566;48.062;9.930;2024-01-30T07:24:54;9.38;;;4.55;;
72388;SDS011;60566;48.062;9.930;2024-01-30T07:27:21;7.05;;;3.90;;
72388;SDS011;60566;48.062;9.930;2024-01-30T07:29:46;9.27;;;4.55;;
72388;SDS011;60566;48.062;9.930;2024-01-30T07:32:11;9.60;;;4.18;;
72388;SDS011;60566;48.062;9.930;2024-01-30T07:34:37;8.15;;;4.75;;
72388;SDS011;60566;48.062;9.930;2024-01-30T07:37:02;6.25;;;4.30;;
72388;SDS011;60566;48.062;9.930;2024-01-30T07:39:28;8.27;;;4.35;;
72388;SDS011;60566;48.062;9.930;2024-01-30T07:41:53;13.35;;;7.45;;
72388;SDS011;60566;48.062;9.930;2024-01-30T07:44:20;13.10;;;5.90;;
72388;SDS011;60566;48.062;9.930;2024-01-30T07:46:46;8.82;;;4.45;;
72388;SDS011;60566;48.062;9.930;2024-01-30T07:49:11;11.25;;;5.65;;
72388;SDS011;60566;48.062;9.930;2024-01-30T07:51:36;10.77;;;4.90;;
72388;SDS011;60566;48.062;9.930;2024-01-30T07:54:02;7.95;;;5.03;;
72388;SDS011;60566;48.062;9.930;2024-01-30T07:56:27;7.82;;;4.90;;
72388;SDS011;60566;48.062;9.930;2024-01-30T07:58:53;10.25;;;4.75;;
72388;SDS011;60566;48.062;9.930;2024-01-30T08:01:20;9.75;;;5.82;;
72388;SDS011;60566;48.062;9.930;2024-01-30T08:03:45;11.15;;;4.55;;
72388;SDS011;60566;48.062;9.930;2024-01-30T08:06:10;9.65;;;4.97;;
72388;SDS011;60566;48.062;9.930;2024-01-30T08:08:36;10.18;;;5.25;;
72388;SDS011;60566;48.062;9.930;2024-01-30T08:11:01;10.63;;;5.53;;
72388;SDS011;60566;48.062;9.930;2024-01-30T08:13:27;10.57;;;5.28;;
72388;SDS011;60566;48.062;9.930;2024-01-30T08:15:52;10.10;;;5.13;;
72388;SDS011;60566;48.062;9.930;2024-01-30T08:18:19;10.85;;;5.60;;
72388;SDS011;60566;48.062;9.930;2024-01-30T08:20:44;9.38;;;4.85;;
72388;SDS011;60566;48.062;9.930;2024-01-30T08:23:10;11.18;;;5.97;;
72388;SDS011;60566;48.062;9.930;2024-01-30T08:25:35;9.90;;;5.15;;
72388;SDS011;60566;48.062;9.930;2024-01-30T08:28:01;8.73;;;4.55;;
72388;SDS011;60566;48.062;9.930;2024-01-30T08:30:26;16.35;;;9.73;;
72388;SDS011;60566;48.062;9.930;2024-01-30T08:32:52;9.90;;;5.88;;
72388;SDS011;60566;48.062;9.930;2024-01-30T08:35:18;7.40;;;5.13;;
72388;SDS011;60566;48.062;9.930;2024-01-30T08:37:44;8.07;;;4.07;;
72388;SDS011;60566;48.062;9.930;2024-01-30T08:40:10;6.75;;;4.32;;
72388;SDS011;60566;48.062;9.930;2024-01-30T08:42:35;8.18;;;4.82;;
72388;SDS011;60566;48.062;9.930;2024-01-30T08:45:01;8.82;;;4.53;;
72388;SDS011;60566;48.062;9.930;2024-01-30T08:47:26;9.25;;;5.15;;
72388;SDS011;60566;48.062;9.930;2024-01-30T08:49:52;9.15;;;3.83;;
72388;SDS011;60566;48.062;9.930;2024-01-30T08:52:19;10.32;;;5.05;;
72388;SDS011;60566;48.062;9.930;2024-01-30T08:54:44;9.98;;;5.07;;
72388;SDS011;60566;48.062;9.930;2024-01-30T08:57:09;8.82;;;5.00;;
72388;SDS011;60566;48.062;9.930;2024-01-30T08:59:35;9.15;;;5.22;;
72388;SDS011;60566;48.062;9.930;2024-01-30T09:02:00;8.18;;;4.85;;
72388;SDS011;60566;48.062;9.930;2024-01-30T09:04:26;9.35;;;5.53;;
72388;SDS011;60566;48.062;9.930;2024-01-30T09:06:51;10.38;;;5.43;;
72388;SDS011;60566;48.062;9.930;2024-01-30T09:09:19;11.60;;;5.15;;
72388;SDS011;60566;48.062;9.930;2024-01-30T09:11:44;11.63;;;5.32;;
72388;SDS011;60566;48.062;9.930;2024-01-30T09:14:09;9.15;;;5.13;;
72388;SDS011;60566;48.062;9.930;2024-01-30T09:16:35;9.63;;;5.93;;
72388;SDS011;60566;48.062;9.930;2024-01-30T09:19:02;9.55;;;5.63;;
72388;SDS011;60566;48.062;9.930;2024-01-30T09:21:28;10.38;;;5.50;;
72388;SDS011;60566;48.062;9.930;2024-01-30T09:23:54;12.27;;;5.97;;
72388;SDS011;60566;48.062;9.930;2024-01-30T09:26:21;11.00;;;4.75;;
72388;SDS011;60566;48.062;9.930;2024-01-30T09:28:46;10.23;;;4.95;;
72388;SDS011;60566;48.062;9.930;2024-01-30T09:31:12;12.82;;;5.80;;
72388;SDS011;60566;48.062;9.930;2024-01-30T09:33:37;10.05;;;5.82;;
72388;SDS011;60566;48.062;9.930;2024-01-30T09:36:03;10.63;;;5.53;;
72388;SDS011;60566;48.062;9.930;2024-01-30T09:38:30;11.32;;;5.93;;
72388;SDS011;60566;48.062;9.930;2024-01-30T09:40:55;10.75;;;5.63;;
72388;SDS011;60566;48.062;9.930;2024-01-30T09:43:22;10.60;;;5.38;;
72388;SDS011;60566;48.062;9.930;2024-01-30T09:45:48;9.40;;;4.82;;
72388;SDS011;60566;48.062;9.930;2024-01-30T09:48:15;8.98;;;5.40;;
72388;SDS011;60566;48.062;9.930;2024-01-30T09:50:40;11.35;;;6.05;;
72388;SDS011;60566;48.062;9.930;2024-01-30T09:53:06;12.30;;;5.53;;
72388;SDS011;60566;48.062;9.930;2024-01-30T09:55:33;9.73;;;5.10;;
72388;SDS011;60566;48.062;9.930;2024-01-30T09:58:00;10.80;;;6.18;;
72388;SDS011;60566;48.062;9.930;2024-01-30T10:00:26;14.05;;;5.93;;
72388;SDS011;60566;48.062;9.930;2024-01-30T10:02:52;10.98;;;6.80;;
72388;SDS011;60566;48.062;9.930;2024-01-30T10:05:17;11.70;;;6.05;;
72388;SDS011;60566;48.062;9.930;2024-01-30T10:07:49;15.27;;;7.45;;
72388;SDS011;60566;48.062;9.930;2024-01-30T10:10:17;14.93;;;6.80;;
72388;SDS011;60566;48.062;9.930;2024-01-30T10:12:42;12.63;;;6.43;;
72388;SDS011;60566;48.062;9.930;2024-01-30T10:15:08;12.07;;;6.60;;
72388;SDS011;60566;48.062;9.930;2024-01-30T10:17:37;14.93;;;7.00;;
72388;SDS011;60566;48.062;9.930;2024-01-30T10:20:04;12.57;;;7.55;;
72388;SDS011;60566;48.062;9.930;2024-01-30T10:22:30;11.98;;;6.55;;
72388;SDS011;60566;48.062;9.930;2024-01-30T10:24:55;12.90;;;7.63;;
72388;SDS011;60566;48.062;9.930;2024-01-30T10:27:23;13.23;;;6.80;;
72388;SDS011;60566;48.062;9.930;2024-01-30T10:29:50;12.38;;;6.97;;
72388;SDS011;60566;48.062;9.930;2024-01-30T10:32:16;13.43;;;7.25;;
72388;SDS011;60566;48.062;9.930;2024-01-30T10:34:43;13.30;;;7.05;;
72388;SDS011;60566;48.062;9.930;2024-01-30T10:37:09;14.55;;;8.13;;
72388;SDS011;60566;48.062;9.930;2024-01-30T10:39:36;13.23;;;6.88;;
72388;SDS011;60566;48.062;9.930;2024-01-30T10:42:03;14.52;;;7.00;;
72388;SDS011;60566;48.062;9.930;2024-01-30T10:44:30;12.25;;;6.55;;
72388;SDS011;60566;48.062;9.930;2024-01-30T10:47:03;11.82;;;7.10;;
72388;SDS011;60566;48.062;9.930;2024-01-30T10:49:32;13.10;;;7.30;;
72388;SDS011;60566;48.062;9.930;2024-01-30T10:51:58;13.23;;;7.03;;
72388;SDS011;60566;48.062;9.930;2024-01-30T10:54:24;13.98;;;7.85;;
72388;SDS011;60566;48.062;9.930;2024-01-30T10:56:50;14.00;;;5.75;;
72388;SDS011;60566;48.062;9.930;2024-01-30T10:59:16;14.80;;;7.30;;
72388;SDS011;60566;48.062;9.930;2024-01-30T11:01:41;11.10;;;6.82;;
72388;SDS011;60566;48.062;9.930;2024-01-30T11:04:07;13.10;;;6.80;;
72388;SDS011;60566;48.062;9.930;2024-01-30T11:06:32;12.55;;;6.82;;
72388;SDS011;60566;48.062;9.930;2024-01-30T11:09:10;13.55;;;7.03;;
72388;SDS011;60566;48.062;9.930;2024-01-30T11:11:47;12.68;;;6.82;;
72388;SDS011;60566;48.062;9.930;2024-01-30T11:14:13;10.70;;;6.32;;
72388;SDS011;60566;48.062;9.930;2024-01-30T11:16:39;11.50;;;6.07;;
72388;SDS011;60566;48.062;9.930;2024-01-30T11:19:05;13.77;;;7.43;;
72388;SDS011;60566;48.062;9.930;2024-01-30T11:21:39;15.80;;;7.65;;
72388;SDS011;60566;48.062;9.930;2024-01-30T11:24:08;12.18;;;7.18;;
72388;SDS011;60566;48.062;9.930;2024-01-30T11:26:33;13.98;;;7.03;;
72388;SDS011;60566;48.062;9.930;2024-01-30T11:28:58;13.55;;;7.38;;
72388;SDS011;60566;48.062;9.930;2024-01-30T11:31:28;12.75;;;7.35;;
72388;SDS011;60566;48.062;9.930;2024-01-30T11:33:53;14.93;;;7.32;;
72388;SDS011;60566;48.062;9.930;2024-01-30T11:36:19;13.75;;;7.15;;
72388;SDS011;60566;48.062;9.930;2024-01-30T11:38:46;11.45;;;6.40;;
72388;SDS011;60566;48.062;9.930;2024-01-30T11:41:13;10.93;;;6.47;;
72388;SDS011;60566;48.062;9.930;2024-01-30T11:43:41;11.15;;;6.57;;
72388;SDS011;60566;48.062;9.930;2024-01-30T11:46:07;15.10;;;6.97;;
72388;SDS011;60566;48.062;9.930;2024-01-30T11:48:32;12.13;;;6.35;;
72388;SDS011;60566;48.062;9.930;2024-01-30T11:50:58;12.80;;;7.22;;
72388;SDS011;60566;48.062;9.930;2024-01-30T11:53:23;12.15;;;6.55;;
72388;SDS011;60566;48.062;9.930;2024-01-30T11:55:52;13.52;;;6.18;;
72388;SDS011;60566;48.062;9.930;2024-01-30T11:58:18;12.27;;;6.60;;
72388;SDS011;60566;48.062;9.930;2024-01-30T12:00:52;14.57;;;7.20;;
72388;SDS011;60566;48.062;9.930;2024-01-30T12:03:18;13.30;;;7.05;;
72388;SDS011;60566;48.062;9.930;2024-01-30T12:05:43;16.60;;;7.72;;
72388;SDS011;60566;48.062;9.930;2024-01-30T12:08:13;14.15;;;7.20;;
72388;SDS011;60566;48.062;9.930;2024-01-30T12:10:39;14.55;;;7.15;;
72388;SDS011;60566;48.062;9.930;2024-01-30T12:13:05;15.50;;;6.88;;
72388;SDS011;60566;48.062;9.930;2024-01-30T12:15:32;14.80;;;7.05;;
72388;SDS011;60566;48.062;9.930;2024-01-30T12:18:03;12.23;;;6.53;;
72388;SDS011;60566;48.062;9.930;2024-01-30T12:20:29;12.88;;;6.63;;
72388;SDS011;60566;48.062;9.930;2024-01-30T12:22:54;10.05;;;6.07;;
72388;SDS011;60566;48.062;9.930;2024-01-30T12:25:20;12.02;;;6.90;;
72388;SDS011;60566;48.062;9.930;2024-01-30T12:27:46;13.68;;;7.28;;
72388;SDS011;60566;48.062;9.930;2024-01-30T12:30:12;11.98;;;6.82;;
72388;SDS011;60566;48.062;9.930;2024-01-30T12:32:40;13.98;;;6.93;;
72388;SDS011;60566;48.062;9.930;2024-01-30T12:35:06;11.10;;;6.53;;
72388;SDS011;60566;48.062;9.930;2024-01-30T12:37:32;11.48;;;6.97;;
72388;SDS011;60566;48.062;9.930;2024-01-30T12:39:58;15.02;;;7.45;;
72388;SDS011;60566;48.062;9.930;2024-01-30T12:42:23;13.30;;;8.30;;
72388;SDS011;60566;48.062;9.930;2024-01-30T12:44:48;11.48;;;7.03;;
72388;SDS011;60566;48.062;9.930;2024-01-30T12:47:14;13.27;;;7.28;;
72388;SDS011;60566;48.062;9.930;2024-01-30T12:49:41;11.73;;;7.10;;
72388;SDS011;60566;48.062;9.930;2024-01-30T12:52:06;11.25;;;6.55;;
72388;SDS011;60566;48.062;9.930;2024-01-30T12:54:32;13.45;;;7.80;;
72388;SDS011;60566;48.062;9.930;2024-01-30T12:56:57;11.55;;;6.97;;
72388;SDS011;60566;48.062;9.930;2024-01-30T12:59:23;12.20;;;6.75;;
72388;SDS011;60566;48.062;9.930;2024-01-30T13:01:48;12.00;;;7.00;;
72388;SDS011;60566;48.062;9.930;2024-01-30T13:04:14;12.70;;;7.40;;
72388;SDS011;60566;48.062;9.930;2024-01-30T13:06:40;13.25;;;7.80;;
72388;SDS011;60566;48.062;9.930;2024-01-30T13:09:06;12.88;;;7.03;;
72388;SDS011;60566;48.062;9.930;2024-01-30T13:11:31;11.45;;;7.70;;
72388;SDS011;60566;48.062;9.930;2024-01-30T13:13:57;15.90;;;7.38;;
72388;SDS011;60566;48.062;9.930;2024-01-30T13:16:22;15.57;;;7.32;;
72388;SDS011;60566;48.062;9.930;2024-01-30T13:18:47;14.15;;;8.45;;
72388;SDS011;60566;48.062;9.930;2024-01-30T13:21:13;13.88;;;7.65;;
72388;SDS011;60566;48.062;9.930;2024-01-30T13:23:39;15.52;;;7.75;;
72388;SDS011;60566;48.062;9.930;2024-01-30T13:26:05;14.63;;;8.20;;
72388;SDS011;60566;48.062;9.930;2024-01-30T13:28:30;15.65;;;7.70;;
72388;SDS011;60566;48.062;9.930;2024-01-30T13:30:56;14.13;;;8.10;;
72388;SDS011;60566;48.062;9.930;2024-01-30T13:33:21;18.58;;;7.80;;
72388;SDS011;60566;48.062;9.930;2024-01-30T13:35:46;12.55;;;7.20;;
72388;SDS011;60566;48.062;9.930;2024-01-30T13:38:12;16.17;;;8.63;;
72388;SDS011;60566;48.062;9.930;2024-01-30T13:40:38;13.20;;;6.95;;
72388;SDS011;60566;48.062;9.930;2024-01-30T13:43:04;16.27;;;7.93;;
72388;SDS011;60566;48.062;9.930;2024-01-30T13:45:29;17.00;;;8.65;;
72388;SDS011;60566;48.062;9.930;2024-01-30T13:47:55;13.93;;;7.57;;
72388;SDS011;60566;48.062;9.930;2024-01-30T13:50:20;14.85;;;7.95;;
72388;SDS011;60566;48.062;9.930;2024-01-30T13:52:46;14.88;;;8.27;;
72388;SDS011;60566;48.062;9.930;2024-01-30T13:55:11;12.18;;;7.53;;
72388;SDS011;60566;48.062;9.930;2024-01-30T13:57:38;14.18;;;8.45;;
72388;SDS011;60566;48.062;9.930;2024-01-30T14:00:03;14.38;;;8.57;;
72388;SDS011;60566;48.062;9.930;2024-01-30T14:02:29;14.13;;;7.47;;
72388;SDS011;60566;48.062;9.930;2024-01-30T14:04:55;13.63;;;8.68;;
72388;SDS011;60566;48.062;9.930;2024-01-30T14:07:20;16.88;;;8.20;;
72388;SDS011;60566;48.062;9.930;2024-01-30T14:09:46;13.18;;;6.95;;
72388;SDS011;60566;48.062;9.930;2024-01-30T14:12:12;12.80;;;7.05;;
72388;SDS011;60566;48.062;9.930;2024-01-30T14:14:39;14.73;;;7.78;;
72388;SDS011;60566;48.062;9.930;2024-01-30T14:17:07;12.27;;;7.57;;
72388;SDS011;60566;48.062;9.930;2024-01-30T14:19:32;12.90;;;7.43;;
72388;SDS011;60566;48.062;9.930;2024-01-30T14:21:58;11.75;;;7.10;;
72388;SDS011;60566;48.062;9.930;2024-01-30T14:24:23;14.57;;;7.82;;
72388;SDS011;60566;48.062;9.930;2024-01-30T14:26:49;11.45;;;6.38;;
72388;SDS011;60566;48.062;9.930;2024-01-30T14:29:14;14.45;;;7.30;;
72388;SDS011;60566;48.062;9.930;2024-01-30T14:31:41;10.82;;;6.60;;